This is the latest recevied weather packets stored in our database for station/object K7LDN-13. If no packets are shown the sender has not sent any weather packets the latest 1 day(s).
| Time | Temp. | Humidity | Pressure | Rain* | Wind** | Luminosity | Snow |
|---|---|---|---|---|---|---|---|
| 1778021062 | 12.78° C | 57% | 1012.8 hPa | 0 mm | 0.89 m/s, 187° | 288 W/m² | - |
| 1778020759 | 12.22° C | 59% | 1013 hPa | 0 mm | 2.24 m/s, 228° | 289 W/m² | - |
| 1778020456 | 12.22° C | 60% | 1012.7 hPa | 0 mm | 1.34 m/s, 214° | 218 W/m² | - |
| 1778020152 | 11.67° C | 63% | 1012.8 hPa | 0 mm | 0.89 m/s, 164° | 101 W/m² | - |
| 1778019848 | 11.67° C | 63% | 1013.2 hPa | 1.27 mm | 2.24 m/s, 147° | 100 W/m² | - |
| 1778019545 | 12.78° C | 59% | 1013.1 hPa | 0.51 mm | 2.68 m/s, 156° | 97 W/m² | - |
| 1778019242 | 12.78° C | 54% | 1013.2 hPa | 0 mm | 1.34 m/s, 149° | 110 W/m² | - |
| 1778018939 | 12.78° C | 54% | 1013.1 hPa | 0 mm | 3.13 m/s, 158° | 114 W/m² | - |
| 1778018636 | 13.33° C | 52% | 1013.3 hPa | 0 mm | 1.79 m/s, 128° | 96 W/m² | - |
| 1778018333 | 13.33° C | 48% | 1013.3 hPa | 0 mm | 2.24 m/s, 95° | 132 W/m² | - |
| 1778018031 | 13.33° C | 48% | 1013.2 hPa | 0 mm | 1.79 m/s, 114° | 164 W/m² | - |
| 1778017729 | 13.33° C | 48% | 1013.1 hPa | 0 mm | 4.02 m/s, 152° | 132 W/m² | - |
| 1778017426 | 13.33° C | 48% | 1013.2 hPa | 0 mm | 2.24 m/s, 149° | 130 W/m² | - |
| 1778017123 | 13.33° C | 50% | 1013.3 hPa | 0 mm | 1.34 m/s, 153° | 174 W/m² | - |
| 1778016821 | 13.33° C | 50% | 1013 hPa | 0 mm | 1.34 m/s, 171° | 139 W/m² | - |
| 1778016517 | 13.33° C | 49% | 1013.4 hPa | 0 mm | 4.02 m/s, 138° | 153 W/m² | - |
| 1778016214 | 13.89° C | 48% | 1013.3 hPa | 0 mm | 1.34 m/s, 133° | 167 W/m² | - |
| 1778015910 | 13.89° C | 49% | 1013.2 hPa | 0 mm | 1.79 m/s, 158° | 252 W/m² | - |
| 1778015608 | 13.89° C | 49% | 1013.2 hPa | 0 mm | 4.92 m/s, 162° | 273 W/m² | - |
| 1778015304 | 13.33° C | 50% | 1013.2 hPa | 0 mm | 2.24 m/s, 135° | 274 W/m² | - |
| 1778015001 | 13.33° C | 51% | 1013.4 hPa | 0 mm | 1.79 m/s, 171° | 256 W/m² | - |
| 1778014698 | 13.33° C | 52% | 1013.3 hPa | 0 mm | 2.24 m/s, 143° | 224 W/m² | - |
| 1778014397 | 12.78° C | 51% | 1013.3 hPa | 0 mm | 4.47 m/s, 137° | 178 W/m² | - |
| 1778014093 | 13.33° C | 49% | 1013.4 hPa | 0 mm | 3.13 m/s, 171° | 161 W/m² | - |
| 1778013791 | 13.33° C | 50% | 1013.4 hPa | 0 mm | 2.68 m/s, 175° | 146 W/m² | - |
* Rain latest hour (hover to see other rain measurements)
** Current wind speed in m/s (hover to see current wind gust speed)